Latest Coastal Weather Observations for Noarlunga

IDS60701

Issued at 7:41 pm CDT Sunday 26 March 2017 (issued every 10 minutes, with the page automatically refreshed every 10 minutes)

About coastal observations | Map of coastal stations | Coastal observations for SA | Marine services | Other Formats
Station Details ID: 023885 Name: NOARLUNGA Lat: -35.16 Lon: 138.51 Height: 55.0 m
Data from the previous 72 hours. | See also: Recent months at Noarlunga
Date/Time
CDT
Temp
°C
Wind Pressure Rain since
9am
mm
Weather Cloud Vis
km
Sea
Height
m
Swell
Dir  Spd
kts
Gust
kts
hPa Trend Height
m
Period
s
Dir
26/07:30pm 31.8 ENE 7 11 - - 0.0 - - - - - - -
26/07:00pm 32.2 ENE 7 10 - - 0.0 - - - - - - -
26/06:30pm 32.4 NE 7 12 - - 0.0 - - - - - - -
26/06:00pm 32.5 ENE 7 13 - - 0.0 - - - - - - -
26/05:30pm 31.9 ENE 8 15 - - 0.0 - - - - - - -
26/05:00pm 31.6 E 8 13 - - 0.0 - - - - - - -
26/04:30pm 30.9 WSW 1 2 - - 0.0 - - - - - - -
26/04:00pm 31.0 WSW 2 6 - - 0.0 - - - - - - -
26/03:30pm 29.7 WNW 3 4 - - 0.0 - - - - - - -
26/03:00pm 30.6 WSW 3 5 - - 0.0 - - - - - - -
26/02:30pm 30.3 W 3 4 - - 0.0 - - - - - - -
26/02:00pm 29.4 NW 2 3 - - 0.0 - - - - - - -
26/01:30pm 29.2 WNW 2 3 - - 0.0 - - - - - - -
26/01:00pm 30.0 NNW 2 4 - - 0.0 - - - - - - -
26/12:30pm 29.5 NE 2 5 - - 0.0 - - - - - - -
26/12:00pm 29.4 NE 3 6 - - 0.0 - - - - - - -
26/11:30am 28.2 SE 1 4 - - 0.0 - - - - - - -
26/11:00am 26.5 SE 4 6 - - 0.0 - - - - - - -
26/10:30am 25.2 ESE 6 8 - - 0.0 - - - - - - -
26/10:00am 23.9 ESE 7 10 - - 0.0 - - - - - - -
26/09:30am 22.3 ESE 5 8 - - 0.0 - - - - - - -
26/09:00am 21.4 ESE 6 9 - - 0.0 - - - - - - -
26/08:30am 20.9 ESE 6 8 - - 0.0 - - - - - - -
26/08:00am 20.8 E 6 8 - - 0.0 - - - - - - -
26/07:30am 20.4 ESE 4 7 - - 0.0 - - - - - - -
26/07:00am 20.1 ESE 5 7 - - 0.0 - - - - - - -
26/06:30am 19.8 ESE 5 8 - - 0.0 - - - - - - -
26/06:00am 19.2 SE 4 7 - - 0.0 - - - - - - -
26/05:30am 19.8 ESE 4 5 - - 0.0 - - - - - - -
26/05:00am 20.0 ENE 2 3 - - 0.0 - - - - - - -
26/04:30am 20.0 ENE 2 3 - - 0.0 - - - - - - -
26/04:00am 19.8 ENE 3 5 - - 0.0 - - - - - - -
26/03:30am 19.5 ENE 4 6 - - 0.0 - - - - - - -
26/03:00am 19.4 ESE 4 6 - - 0.0 - - - - - - -
26/02:30am 19.6 ENE 6 9 - - 0.0 - - - - - - -
26/02:00am 19.3 ESE 7 9 - - 0.0 - - - - - - -
26/01:30am 19.4 ESE 7 11 - - 0.0 - - - - - - -
26/01:00am 19.8 E 7 10 - - 0.0 - - - - - - -
26/12:30am 19.4 E 7 9 - - 0.0 - - - - - - -
26/12:00am 19.7 E 8 11 - - 0.0 - - - - - - -
 
Date/Time
CDT
Temp
°C
Wind Pressure Rain since
9am
mm
Weather Cloud Vis
km
Sea
Height
m
Swell
Dir  Spd
kts
Gust
kts
hPa Trend Height
m
Period
s
Dir
25/11:30pm 20.1 E 6 10 - - 0.0 - - - - - - -
25/11:00pm 19.9 E 6 10 - - 0.0 - - - - - - -
25/10:30pm 19.9 ESE 9 13 - - 0.0 - - - - - - -
25/10:00pm 20.3 E 8 13 - - 0.0 - - - - - - -
25/09:30pm 20.7 E 10 15 - - 0.0 - - - - - - -
25/09:00pm 21.7 E 7 10 - - 0.0 - - - - - - -
25/08:30pm 22.3 SE 3 5 - - 0.0 - - - - - - -
25/08:00pm 22.5 E 5 10 - - 0.0 - - - - - - -
25/07:30pm 22.7 SE 3 5 - - 0.0 - - - - - - -
25/07:00pm 22.6 WNW 1 2 - - 0.0 - - - - - - -
25/06:30pm 22.8 SSW 1 2 - - 0.0 - - - - - - -
25/06:00pm 22.8 WSW 3 5 - - 0.0 - - - - - - -
25/05:30pm 23.3 WNW 2 3 - - 0.0 - - - - - - -
25/05:00pm 23.6 WSW 4 7 - - 0.0 - - - - - - -
25/04:30pm 23.6 W 5 8 - - 0.0 - - - - - - -
25/04:00pm 24.3 WSW 5 7 - - 0.0 - - - - - - -
25/03:30pm 25.0 W 4 6 - - 0.0 - - - - - - -
25/03:00pm 24.8 WSW 6 8 - - 0.0 - - - - - - -
25/02:30pm 25.2 WSW 4 6 - - 0.0 - - - - - - -
25/02:00pm 25.2 WSW 5 9 - - 0.0 - - - - - - -
25/01:30pm 24.3 W 4 6 - - 0.0 - - - - - - -
25/01:00pm 23.8 WNW 4 5 - - 0.0 - - - - - - -
25/12:30pm 23.9 W 3 5 - - 0.0 - - - - - - -
25/12:00pm 24.4 WNW 4 6 - - 0.0 - - - - - - -
25/11:30am 24.3 NW 2 3 - - 0.0 - - - - - - -
25/11:00am 23.4 W 2 3 - - 0.0 - - - - - - -
25/10:30am 23.0 NW 2 4 - - 0.0 - - - - - - -
25/10:00am 22.5 NW 3 3 - - 0.0 - - - - - - -
25/09:30am 22.4 NW 2 3 - - 0.0 - - - - - - -
25/09:00am 22.4 WNW 3 5 - - 0.0 - - - - - - -
25/08:30am 21.5 NE 2 3 - - 0.0 - - - - - - -
25/08:00am 21.0 NNW 1 1 - - 0.0 - - - - - - -
25/07:30am 21.0 NNE 3 4 - - 0.0 - - - - - - -
25/07:00am 21.0 NE 3 3 - - 0.0 - - - - - - -
25/06:30am 21.1 N 1 1 - - 0.0 - - - - - - -
25/06:00am 20.7 NNW 3 3 - - 0.0 - - - - - - -
25/05:30am 20.9 ESE 1 1 - - 0.0 - - - - - - -
25/05:00am 21.3 SSW 2 3 - - 0.0 - - - - - - -
25/04:30am 22.0 CALM 0 0 - - 0.0 - - - - - - -
25/04:00am 22.4 NE 6 8 - - 0.0 - - - - - - -
25/03:30am 22.0 NE 5 8 - - 0.0 - - - - - - -
25/03:00am 22.0 NNE 3 4 - - 0.0 - - - - - - -
25/02:30am 22.2 NNW 2 2 - - 0.0 - - - - - - -
25/02:00am 22.8 NW 3 4 - - 0.0 - - - - - - -
25/01:30am 24.1 W 4 7 - - 0.0 - - - - - - -
25/01:00am 24.9 NE 6 8 - - 0.0 - - - - - - -
25/12:30am 25.1 ENE 5 8 - - 0.0 - - - - - - -
25/12:00am 25.5 E 7 11 - - 0.0 - - - - - - -
 
Date/Time
CDT
Temp
°C
Wind Pressure Rain since
9am
mm
Weather Cloud Vis
km
Sea
Height
m
Swell
Dir  Spd
kts
Gust
kts
hPa Trend Height
m
Period
s
Dir
24/11:30pm 25.3 E 5 8 - - 0.0 - - - - - - -
24/11:00pm 25.1 ESE 5 8 - - 0.0 - - - - - - -
24/10:30pm 25.4 ESE 8 12 - - 0.0 - - - - - - -
24/10:00pm 25.6 ESE 9 13 - - 0.0 - - - - - - -
24/09:30pm 25.6 ESE 7 10 - - 0.0 - - - - - - -
24/09:00pm 25.7 ESE 6 9 - - 0.0 - - - - - - -
24/08:30pm 25.9 ESE 5 8 - - 0.0 - - - - - - -
24/08:00pm 26.3 SE 5 7 - - 0.0 - - - - - - -
24/07:30pm 26.6 SSW 3 5 - - 0.0 - - - - - - -
24/07:00pm 27.6 SW 3 6 - - 0.0 - - - - - - -
24/06:30pm 29.2 SW 3 4 - - 0.0 - - - - - - -
24/06:00pm 29.8 SW 2 3 - - 0.0 - - - - - - -
24/05:30pm 29.9 SSW 3 5 - - 0.0 - - - - - - -
24/05:00pm 29.8 SW 4 6 - - 0.0 - - - - - - -
24/04:30pm 30.1 SW 3 6 - - 0.0 - - - - - - -
24/04:00pm 30.0 WSW 6 9 - - 0.0 - - - - - - -
24/03:30pm 30.4 W 6 9 - - 0.0 - - - - - - -
24/03:00pm 29.8 WNW 4 7 - - 0.0 - - - - - - -
24/02:30pm 28.7 WNW 5 7 - - 0.0 - - - - - - -
24/02:00pm 27.4 W 4 7 - - 0.0 - - - - - - -
24/01:30pm 26.6 W 4 7 - - 0.0 - - - - - - -
24/01:00pm 26.6 W 8 12 - - 0.0 - - - - - - -
24/12:30pm 26.7 WNW 5 7 - - 0.0 - - - - - - -
24/12:00pm 28.1 W 5 9 - - 0.0 - - - - - - -
24/11:30am 27.2 WNW 3 5 - - 0.0 - - - - - - -
24/11:00am 27.4 WNW 3 6 - - 0.0 - - - - - - -
24/10:30am 27.4 E 1 2 - - 0.0 - - - - - - -
24/10:00am 26.0 NNW 2 4 - - 0.0 - - - - - - -
24/09:30am 25.2 ENE 5 9 - - 0.0 - - - - - - -
24/09:00am 23.3 ENE 7 11 - - 0.0 - - - - - - -
24/08:30am 23.0 ENE 8 11 - - 0.0 - - - - - - -
24/08:00am 22.0 ENE 10 14 - - 0.0 - - - - - - -
24/07:30am 21.2 ENE 9 14 - - 0.0 - - - - - - -
24/07:00am 21.4 ENE 10 14 - - 0.0 - - - - - - -
24/06:30am 21.4 ENE 9 15 - - 0.0 - - - - - - -
24/06:00am 21.3 ENE 9 14 - - 0.0 - - - - - - -
24/05:30am 21.2 ENE 9 15 - - 0.0 - - - - - - -
24/05:00am 21.4 ENE 11 19 - - 0.0 - - - - - - -
24/04:30am 21.5 E 12 19 - - 0.0 - - - - - - -
24/04:00am 21.4 E 11 17 - - 0.0 - - - - - - -
24/03:30am 21.0 E 13 18 - - 0.0 - - - - - - -
24/03:00am 21.1 E 13 17 - - 0.0 - - - - - - -
24/02:30am 21.1 E 13 19 - - 0.0 - - - - - - -
24/02:00am 20.5 ESE 13 19 - - 0.0 - - - - - - -
24/01:30am 20.4 ESE 12 17 - - 0.0 - - - - - - -
24/01:00am 20.6 ESE 12 18 - - 0.0 - - - - - - -
24/12:30am 20.5 ESE 11 16 - - 0.0 - - - - - - -
24/12:00am 20.3 ESE 8 12 - - 0.0 - - - - - - -
 
Date/Time
CDT
Temp
°C
Wind Pressure Rain since
9am
mm
Weather Cloud Vis
km
Sea
Height
m
Swell
Dir  Spd
kts
Gust
kts
hPa Trend Height
m
Period
s
Dir
23/11:30pm 20.3 SE 8 14 - - 0.0 - - - - - - -
23/11:00pm 18.9 SE 2 4 - - 0.0 - - - - - - -
23/10:30pm 18.8 SE 6 8 - - 0.0 - - - - - - -
23/10:00pm 19.4 SE 1 2 - - 0.0 - - - - - - -
23/09:30pm 19.6 SSE 3 4 - - 0.0 - - - - - - -
23/09:00pm 19.7 CALM 0 3 - - 0.0 - - - - - - -
23/08:30pm 19.8 SE 1 2 - - 0.0 - - - - - - -
23/08:00pm 20.3 SSW 2 5 - - 0.0 - - - - - - -

Other Formats:

Comma delimited format used in spreadsheet applications
http://www.bom.gov.au/fwo/IDS60701/IDS60701.94808.axf

JavaScript Object Notation format (JSON) in row-major order
http://www.bom.gov.au/fwo/IDS60701/IDS60701.94808.json